sensor_id;sensor_type;location;lat;lon;timestamp;P1;durP1;ratioP1;P2;durP2;ratioP2
49514;SDS011;35415;47.870;16.058;2023-05-29T00:00:32;10.82;;;4.68;;
49514;SDS011;35415;47.870;16.058;2023-05-29T00:02:59;8.85;;;4.50;;
49514;SDS011;35415;47.870;16.058;2023-05-29T00:05:26;8.90;;;4.40;;
49514;SDS011;35415;47.870;16.058;2023-05-29T00:07:55;7.90;;;4.20;;
49514;SDS011;35415;47.870;16.058;2023-05-29T00:10:23;8.77;;;4.40;;
49514;SDS011;35415;47.870;16.058;2023-05-29T00:12:50;10.60;;;4.85;;
49514;SDS011;35415;47.870;16.058;2023-05-29T00:15:18;10.07;;;4.95;;
49514;SDS011;35415;47.870;16.058;2023-05-29T00:17:45;8.55;;;4.45;;
49514;SDS011;35415;47.870;16.058;2023-05-29T00:20:12;9.70;;;4.32;;
49514;SDS011;35415;47.870;16.058;2023-05-29T00:22:40;7.80;;;4.78;;
49514;SDS011;35415;47.870;16.058;2023-05-29T00:25:08;5.88;;;3.83;;
49514;SDS011;35415;47.870;16.058;2023-05-29T00:27:36;9.70;;;4.75;;
49514;SDS011;35415;47.870;16.058;2023-05-29T00:30:04;10.80;;;4.20;;
49514;SDS011;35415;47.870;16.058;2023-05-29T00:32:33;8.38;;;3.97;;
49514;SDS011;35415;47.870;16.058;2023-05-29T00:35:00;7.55;;;4.53;;
49514;SDS011;35415;47.870;16.058;2023-05-29T00:37:27;7.38;;;4.55;;
49514;SDS011;35415;47.870;16.058;2023-05-29T00:39:55;9.23;;;4.22;;
49514;SDS011;35415;47.870;16.058;2023-05-29T00:42:24;8.85;;;4.78;;
49514;SDS011;35415;47.870;16.058;2023-05-29T00:44:51;7.40;;;4.05;;
49514;SDS011;35415;47.870;16.058;2023-05-29T00:47:18;8.15;;;4.75;;
49514;SDS011;35415;47.870;16.058;2023-05-29T00:49:46;9.10;;;4.50;;
49514;SDS011;35415;47.870;16.058;2023-05-29T00:52:16;8.85;;;4.45;;
49514;SDS011;35415;47.870;16.058;2023-05-29T00:54:45;8.27;;;4.88;;
49514;SDS011;35415;47.870;16.058;2023-05-29T00:57:13;9.32;;;4.25;;
49514;SDS011;35415;47.870;16.058;2023-05-29T00:59:44;7.90;;;4.53;;
49514;SDS011;35415;47.870;16.058;2023-05-29T01:02:14;9.10;;;4.25;;
49514;SDS011;35415;47.870;16.058;2023-05-29T01:04:43;8.85;;;4.28;;
49514;SDS011;35415;47.870;16.058;2023-05-29T01:07:12;10.38;;;5.00;;
49514;SDS011;35415;47.870;16.058;2023-05-29T01:09:40;12.35;;;4.72;;
49514;SDS011;35415;47.870;16.058;2023-05-29T01:12:14;9.63;;;5.00;;
49514;SDS011;35415;47.870;16.058;2023-05-29T01:14:55;8.15;;;4.90;;
49514;SDS011;35415;47.870;16.058;2023-05-29T01:17:34;11.48;;;5.10;;
49514;SDS011;35415;47.870;16.058;2023-05-29T01:20:14;8.80;;;4.72;;
49514;SDS011;35415;47.870;16.058;2023-05-29T01:23:02;8.38;;;4.97;;
49514;SDS011;35415;47.870;16.058;2023-05-29T01:25:41;9.07;;;4.40;;
49514;SDS011;35415;47.870;16.058;2023-05-29T01:28:22;5.82;;;4.15;;
49514;SDS011;35415;47.870;16.058;2023-05-29T01:30:54;9.18;;;5.00;;
49514;SDS011;35415;47.870;16.058;2023-05-29T01:33:24;9.25;;;5.20;;
49514;SDS011;35415;47.870;16.058;2023-05-29T01:35:52;8.90;;;4.05;;
49514;SDS011;35415;47.870;16.058;2023-05-29T01:38:20;11.32;;;4.63;;
49514;SDS011;35415;47.870;16.058;2023-05-29T01:40:47;13.40;;;5.38;;
49514;SDS011;35415;47.870;16.058;2023-05-29T01:43:15;8.75;;;4.50;;
49514;SDS011;35415;47.870;16.058;2023-05-29T01:45:44;11.07;;;4.85;;
49514;SDS011;35415;47.870;16.058;2023-05-29T01:48:11;9.25;;;4.32;;
49514;SDS011;35415;47.870;16.058;2023-05-29T01:50:39;9.45;;;4.30;;
49514;SDS011;35415;47.870;16.058;2023-05-29T01:53:09;7.35;;;4.43;;
49514;SDS011;35415;47.870;16.058;2023-05-29T01:55:36;7.78;;;4.65;;
49514;SDS011;35415;47.870;16.058;2023-05-29T01:58:03;10.07;;;4.47;;
49514;SDS011;35415;47.870;16.058;2023-05-29T02:00:32;9.57;;;4.10;;
49514;SDS011;35415;47.870;16.058;2023-05-29T02:03:01;7.82;;;4.43;;
49514;SDS011;35415;47.870;16.058;2023-05-29T02:05:31;7.80;;;4.05;;
49514;SDS011;35415;47.870;16.058;2023-05-29T02:07:58;10.15;;;4.55;;
49514;SDS011;35415;47.870;16.058;2023-05-29T02:10:25;8.38;;;4.50;;
49514;SDS011;35415;47.870;16.058;2023-05-29T02:12:53;6.50;;;4.40;;
49514;SDS011;35415;47.870;16.058;2023-05-29T02:15:20;11.52;;;5.03;;
49514;SDS011;35415;47.870;16.058;2023-05-29T02:17:47;9.73;;;4.75;;
49514;SDS011;35415;47.870;16.058;2023-05-29T02:20:16;6.72;;;4.10;;
49514;SDS011;35415;47.870;16.058;2023-05-29T02:22:43;13.32;;;4.53;;
49514;SDS011;35415;47.870;16.058;2023-05-29T02:25:11;10.93;;;4.68;;
49514;SDS011;35415;47.870;16.058;2023-05-29T02:27:38;8.95;;;4.45;;
49514;SDS011;35415;47.870;16.058;2023-05-29T02:30:05;10.75;;;5.80;;
49514;SDS011;35415;47.870;16.058;2023-05-29T02:32:34;7.90;;;5.00;;
49514;SDS011;35415;47.870;16.058;2023-05-29T02:35:01;7.80;;;5.07;;
49514;SDS011;35415;47.870;16.058;2023-05-29T02:37:29;8.30;;;4.63;;
49514;SDS011;35415;47.870;16.058;2023-05-29T02:39:56;9.48;;;4.85;;
49514;SDS011;35415;47.870;16.058;2023-05-29T02:42:24;10.95;;;4.60;;
49514;SDS011;35415;47.870;16.058;2023-05-29T02:44:51;11.70;;;4.60;;
49514;SDS011;35415;47.870;16.058;2023-05-29T02:47:18;8.52;;;4.50;;
49514;SDS011;35415;47.870;16.058;2023-05-29T02:49:45;9.32;;;4.70;;
49514;SDS011;35415;47.870;16.058;2023-05-29T02:52:12;11.40;;;4.68;;
49514;SDS011;35415;47.870;16.058;2023-05-29T02:54:41;7.80;;;4.70;;
49514;SDS011;35415;47.870;16.058;2023-05-29T02:57:08;10.05;;;4.30;;
49514;SDS011;35415;47.870;16.058;2023-05-29T02:59:35;10.55;;;4.72;;
49514;SDS011;35415;47.870;16.058;2023-05-29T03:02:02;8.35;;;5.18;;
49514;SDS011;35415;47.870;16.058;2023-05-29T03:04:30;10.70;;;4.78;;
49514;SDS011;35415;47.870;16.058;2023-05-29T03:07:01;10.13;;;4.72;;
49514;SDS011;35415;47.870;16.058;2023-05-29T03:09:28;8.32;;;4.53;;
49514;SDS011;35415;47.870;16.058;2023-05-29T03:11:57;7.63;;;4.45;;
49514;SDS011;35415;47.870;16.058;2023-05-29T03:14:26;9.35;;;4.70;;
49514;SDS011;35415;47.870;16.058;2023-05-29T03:16:53;9.63;;;4.43;;
49514;SDS011;35415;47.870;16.058;2023-05-29T03:19:21;8.10;;;4.07;;
49514;SDS011;35415;47.870;16.058;2023-05-29T03:21:48;7.43;;;4.63;;
49514;SDS011;35415;47.870;16.058;2023-05-29T03:24:15;10.18;;;4.90;;
49514;SDS011;35415;47.870;16.058;2023-05-29T03:26:43;8.57;;;4.65;;
49514;SDS011;35415;47.870;16.058;2023-05-29T03:29:11;10.20;;;4.32;;
49514;SDS011;35415;47.870;16.058;2023-05-29T03:31:39;8.55;;;4.60;;
49514;SDS011;35415;47.870;16.058;2023-05-29T03:34:05;7.57;;;3.70;;
49514;SDS011;35415;47.870;16.058;2023-05-29T03:36:32;6.75;;;4.50;;
49514;SDS011;35415;47.870;16.058;2023-05-29T03:39:01;8.68;;;5.13;;
49514;SDS011;35415;47.870;16.058;2023-05-29T03:41:29;11.23;;;4.13;;
49514;SDS011;35415;47.870;16.058;2023-05-29T03:43:56;9.18;;;4.80;;
49514;SDS011;35415;47.870;16.058;2023-05-29T03:46:25;8.05;;;4.40;;
49514;SDS011;35415;47.870;16.058;2023-05-29T03:48:52;10.40;;;4.40;;
49514;SDS011;35415;47.870;16.058;2023-05-29T03:51:19;8.02;;;4.88;;
49514;SDS011;35415;47.870;16.058;2023-05-29T03:53:46;8.82;;;4.03;;
49514;SDS011;35415;47.870;16.058;2023-05-29T03:56:14;8.52;;;4.40;;
49514;SDS011;35415;47.870;16.058;2023-05-29T03:58:42;7.85;;;4.38;;
49514;SDS011;35415;47.870;16.058;2023-05-29T04:01:09;7.65;;;4.15;;
49514;SDS011;35415;47.870;16.058;2023-05-29T04:03:38;7.22;;;4.07;;
49514;SDS011;35415;47.870;16.058;2023-05-29T04:06:05;9.98;;;4.78;;
49514;SDS011;35415;47.870;16.058;2023-05-29T04:08:33;9.32;;;4.28;;
49514;SDS011;35415;47.870;16.058;2023-05-29T04:11:00;7.65;;;4.50;;
49514;SDS011;35415;47.870;16.058;2023-05-29T04:13:28;9.50;;;4.53;;
49514;SDS011;35415;47.870;16.058;2023-05-29T04:15:56;8.15;;;4.30;;
49514;SDS011;35415;47.870;16.058;2023-05-29T04:18:23;9.90;;;5.10;;
49514;SDS011;35415;47.870;16.058;2023-05-29T04:20:52;7.40;;;4.32;;
49514;SDS011;35415;47.870;16.058;2023-05-29T04:23:20;8.15;;;4.63;;
49514;SDS011;35415;47.870;16.058;2023-05-29T04:25:48;7.63;;;4.63;;
49514;SDS011;35415;47.870;16.058;2023-05-29T04:28:16;8.25;;;4.22;;
49514;SDS011;35415;47.870;16.058;2023-05-29T04:30:46;8.38;;;4.80;;
49514;SDS011;35415;47.870;16.058;2023-05-29T04:33:13;11.55;;;4.63;;
49514;SDS011;35415;47.870;16.058;2023-05-29T04:35:40;9.15;;;4.18;;
49514;SDS011;35415;47.870;16.058;2023-05-29T04:38:10;9.70;;;4.40;;
49514;SDS011;35415;47.870;16.058;2023-05-29T04:40:38;6.28;;;3.80;;
49514;SDS011;35415;47.870;16.058;2023-05-29T04:43:05;10.27;;;4.47;;
49514;SDS011;35415;47.870;16.058;2023-05-29T04:45:33;7.25;;;4.13;;
49514;SDS011;35415;47.870;16.058;2023-05-29T04:48:02;8.65;;;4.38;;
49514;SDS011;35415;47.870;16.058;2023-05-29T04:50:29;7.20;;;4.20;;
49514;SDS011;35415;47.870;16.058;2023-05-29T04:52:56;9.95;;;4.82;;
49514;SDS011;35415;47.870;16.058;2023-05-29T04:55:25;8.48;;;3.83;;
49514;SDS011;35415;47.870;16.058;2023-05-29T04:57:53;7.47;;;4.82;;
49514;SDS011;35415;47.870;16.058;2023-05-29T05:00:21;6.82;;;4.13;;
49514;SDS011;35415;47.870;16.058;2023-05-29T05:02:49;8.20;;;4.30;;
49514;SDS011;35415;47.870;16.058;2023-05-29T05:05:17;8.90;;;4.60;;
49514;SDS011;35415;47.870;16.058;2023-05-29T05:07:45;8.02;;;4.00;;
49514;SDS011;35415;47.870;16.058;2023-05-29T05:10:12;10.70;;;4.38;;
49514;SDS011;35415;47.870;16.058;2023-05-29T05:12:41;8.82;;;3.88;;
49514;SDS011;35415;47.870;16.058;2023-05-29T05:15:10;9.15;;;4.57;;
49514;SDS011;35415;47.870;16.058;2023-05-29T05:17:37;6.63;;;3.72;;
49514;SDS011;35415;47.870;16.058;2023-05-29T05:20:05;6.20;;;4.63;;
49514;SDS011;35415;47.870;16.058;2023-05-29T05:22:34;7.82;;;4.07;;
49514;SDS011;35415;47.870;16.058;2023-05-29T05:25:01;7.07;;;4.00;;
49514;SDS011;35415;47.870;16.058;2023-05-29T05:27:29;8.18;;;4.50;;
49514;SDS011;35415;47.870;16.058;2023-05-29T05:29:59;10.50;;;4.53;;
49514;SDS011;35415;47.870;16.058;2023-05-29T05:32:26;6.00;;;3.63;;
49514;SDS011;35415;47.870;16.058;2023-05-29T05:34:53;9.13;;;4.00;;
49514;SDS011;35415;47.870;16.058;2023-05-29T05:37:20;11.57;;;4.78;;
49514;SDS011;35415;47.870;16.058;2023-05-29T05:39:48;10.13;;;4.30;;
49514;SDS011;35415;47.870;16.058;2023-05-29T05:42:16;7.85;;;4.00;;
49514;SDS011;35415;47.870;16.058;2023-05-29T05:44:43;7.97;;;4.30;;
49514;SDS011;35415;47.870;16.058;2023-05-29T05:47:11;8.13;;;3.90;;
49514;SDS011;35415;47.870;16.058;2023-05-29T05:49:39;6.88;;;4.10;;
49514;SDS011;35415;47.870;16.058;2023-05-29T05:52:06;8.77;;;4.60;;
49514;SDS011;35415;47.870;16.058;2023-05-29T05:54:33;7.55;;;3.80;;
49514;SDS011;35415;47.870;16.058;2023-05-29T05:57:00;6.75;;;3.85;;
49514;SDS011;35415;47.870;16.058;2023-05-29T05:59:28;7.28;;;3.70;;
49514;SDS011;35415;47.870;16.058;2023-05-29T06:01:55;7.43;;;4.72;;
49514;SDS011;35415;47.870;16.058;2023-05-29T06:04:24;6.57;;;3.75;;
49514;SDS011;35415;47.870;16.058;2023-05-29T06:06:52;9.13;;;3.90;;
49514;SDS011;35415;47.870;16.058;2023-05-29T06:09:19;5.40;;;3.67;;
49514;SDS011;35415;47.870;16.058;2023-05-29T06:11:46;7.45;;;4.25;;
49514;SDS011;35415;47.870;16.058;2023-05-29T06:14:14;7.43;;;3.70;;
49514;SDS011;35415;47.870;16.058;2023-05-29T06:16:41;10.32;;;4.10;;
49514;SDS011;35415;47.870;16.058;2023-05-29T06:19:09;6.10;;;3.83;;
49514;SDS011;35415;47.870;16.058;2023-05-29T06:21:38;8.13;;;3.70;;
49514;SDS011;35415;47.870;16.058;2023-05-29T06:24:05;5.20;;;3.58;;
49514;SDS011;35415;47.870;16.058;2023-05-29T06:26:33;8.93;;;3.60;;
49514;SDS011;35415;47.870;16.058;2023-05-29T06:29:00;8.38;;;4.00;;
49514;SDS011;35415;47.870;16.058;2023-05-29T06:31:27;9.45;;;4.15;;
49514;SDS011;35415;47.870;16.058;2023-05-29T06:33:55;6.75;;;3.83;;
49514;SDS011;35415;47.870;16.058;2023-05-29T06:36:23;5.07;;;3.33;;
49514;SDS011;35415;47.870;16.058;2023-05-29T06:38:51;9.05;;;3.72;;
49514;SDS011;35415;47.870;16.058;2023-05-29T06:41:18;8.88;;;3.70;;
49514;SDS011;35415;47.870;16.058;2023-05-29T06:43:46;5.45;;;3.20;;
49514;SDS011;35415;47.870;16.058;2023-05-29T06:46:14;9.10;;;3.88;;
49514;SDS011;35415;47.870;16.058;2023-05-29T06:48:41;6.97;;;3.65;;
49514;SDS011;35415;47.870;16.058;2023-05-29T06:51:09;6.35;;;3.55;;
49514;SDS011;35415;47.870;16.058;2023-05-29T06:53:36;5.60;;;3.25;;
49514;SDS011;35415;47.870;16.058;2023-05-29T06:56:06;8.10;;;3.83;;
49514;SDS011;35415;47.870;16.058;2023-05-29T06:58:33;11.07;;;3.67;;
49514;SDS011;35415;47.870;16.058;2023-05-29T07:01:01;6.38;;;3.28;;
49514;SDS011;35415;47.870;16.058;2023-05-29T07:03:28;6.47;;;3.33;;
49514;SDS011;35415;47.870;16.058;2023-05-29T07:05:56;9.05;;;3.53;;
49514;SDS011;35415;47.870;16.058;2023-05-29T07:08:24;6.88;;;3.78;;
49514;SDS011;35415;47.870;16.058;2023-05-29T07:10:52;4.60;;;2.92;;
49514;SDS011;35415;47.870;16.058;2023-05-29T07:13:29;6.95;;;3.15;;
49514;SDS011;35415;47.870;16.058;2023-05-29T07:15:59;6.38;;;3.67;;
49514;SDS011;35415;47.870;16.058;2023-05-29T07:27:32;4.80;;;2.60;;
49514;SDS011;35415;47.870;16.058;2023-05-29T07:33:20;4.43;;;2.58;;
49514;SDS011;35415;47.870;16.058;2023-05-29T07:56:51;4.60;;;2.22;;
49514;SDS011;35415;47.870;16.058;2023-05-29T07:59:18;2.90;;;2.00;;
49514;SDS011;35415;47.870;16.058;2023-05-29T08:01:46;3.92;;;2.42;;
49514;SDS011;35415;47.870;16.058;2023-05-29T08:04:17;4.68;;;2.30;;
49514;SDS011;35415;47.870;16.058;2023-05-29T08:09:39;7.45;;;2.78;;
49514;SDS011;35415;47.870;16.058;2023-05-29T08:12:08;3.17;;;2.20;;
49514;SDS011;35415;47.870;16.058;2023-05-29T08:14:36;4.38;;;2.35;;
49514;SDS011;35415;47.870;16.058;2023-05-29T08:17:04;3.58;;;2.30;;
49514;SDS011;35415;47.870;16.058;2023-05-29T08:28:06;7.72;;;2.80;;
49514;SDS011;35415;47.870;16.058;2023-05-29T09:52:40;3.15;;;2.30;;
49514;SDS011;35415;47.870;16.058;2023-05-29T10:10:01;3.90;;;2.20;;
49514;SDS011;35415;47.870;16.058;2023-05-29T10:24:42;3.83;;;2.20;;
49514;SDS011;35415;47.870;16.058;2023-05-29T10:27:20;8.55;;;2.67;;
49514;SDS011;35415;47.870;16.058;2023-05-29T10:35:18;5.85;;;2.70;;
49514;SDS011;35415;47.870;16.058;2023-05-29T10:37:52;4.68;;;2.47;;
49514;SDS011;35415;47.870;16.058;2023-05-29T10:40:24;4.35;;;2.47;;
49514;SDS011;35415;47.870;16.058;2023-05-29T10:42:55;2.67;;;1.98;;
49514;SDS011;35415;47.870;16.058;2023-05-29T10:48:36;3.53;;;2.20;;
49514;SDS011;35415;47.870;16.058;2023-05-29T10:54:10;2.70;;;2.08;;
49514;SDS011;35415;47.870;16.058;2023-05-29T10:59:46;3.95;;;2.28;;
49514;SDS011;35415;47.870;16.058;2023-05-29T11:02:17;3.00;;;2.20;;
49514;SDS011;35415;47.870;16.058;2023-05-29T11:07:34;4.90;;;2.15;;
49514;SDS011;35415;47.870;16.058;2023-05-29T11:10:12;4.03;;;2.35;;
49514;SDS011;35415;47.870;16.058;2023-05-29T11:18:09;3.45;;;2.42;;
49514;SDS011;35415;47.870;16.058;2023-05-29T11:20:43;4.97;;;2.83;;
49514;SDS011;35415;47.870;16.058;2023-05-29T11:23:16;2.88;;;2.50;;
49514;SDS011;35415;47.870;16.058;2023-05-29T11:25:46;4.95;;;2.20;;
49514;SDS011;35415;47.870;16.058;2023-05-29T11:28:16;7.18;;;2.35;;
49514;SDS011;35415;47.870;16.058;2023-05-29T11:51:41;3.17;;;2.33;;
49514;SDS011;35415;47.870;16.058;2023-05-29T12:00:12;5.18;;;2.88;;
49514;SDS011;35415;47.870;16.058;2023-05-29T12:02:48;3.92;;;2.58;;
49514;SDS011;35415;47.870;16.058;2023-05-29T12:14:07;3.30;;;2.60;;
49514;SDS011;35415;47.870;16.058;2023-05-29T12:16:37;6.35;;;2.60;;
49514;SDS011;35415;47.870;16.058;2023-05-29T12:19:04;3.50;;;2.83;;
49514;SDS011;35415;47.870;16.058;2023-05-29T12:27:38;6.07;;;4.00;;
49514;SDS011;35415;47.870;16.058;2023-05-29T12:30:19;5.15;;;3.60;;
49514;SDS011;35415;47.870;16.058;2023-05-29T12:32:50;13.52;;;4.57;;
49514;SDS011;35415;47.870;16.058;2023-05-29T12:35:35;5.10;;;3.33;;
49514;SDS011;35415;47.870;16.058;2023-05-29T12:38:04;4.82;;;3.50;;
49514;SDS011;35415;47.870;16.058;2023-05-29T12:46:43;3.80;;;3.00;;
49514;SDS011;35415;47.870;16.058;2023-05-29T13:13:49;3.10;;;2.60;;
49514;SDS011;35415;47.870;16.058;2023-05-29T13:34:39;5.00;;;3.10;;
49514;SDS011;35415;47.870;16.058;2023-05-29T14:01:28;4.15;;;2.90;;
49514;SDS011;35415;47.870;16.058;2023-05-29T14:16:02;4.80;;;2.90;;
49514;SDS011;35415;47.870;16.058;2023-05-29T14:18:33;4.93;;;2.65;;
49514;SDS011;35415;47.870;16.058;2023-05-29T14:21:00;3.92;;;2.85;;
49514;SDS011;35415;47.870;16.058;2023-05-29T15:54:22;3.13;;;2.58;;
49514;SDS011;35415;47.870;16.058;2023-05-29T15:56:49;3.53;;;2.45;;
49514;SDS011;35415;47.870;16.058;2023-05-29T16:11:16;4.78;;;2.80;;
49514;SDS011;35415;47.870;16.058;2023-05-29T16:13:44;3.28;;;2.45;;
49514;SDS011;35415;47.870;16.058;2023-05-29T16:37:12;3.08;;;2.28;;
49514;SDS011;35415;47.870;16.058;2023-05-29T16:39:40;3.38;;;2.58;;
49514;SDS011;35415;47.870;16.058;2023-05-29T16:42:07;3.47;;;2.30;;
49514;SDS011;35415;47.870;16.058;2023-05-29T16:44:36;3.90;;;2.45;;
49514;SDS011;35415;47.870;16.058;2023-05-29T17:08:22;4.38;;;2.08;;
49514;SDS011;35415;47.870;16.058;2023-05-29T17:16:43;3.10;;;2.42;;
49514;SDS011;35415;47.870;16.058;2023-05-29T17:19:11;3.80;;;2.17;;
49514;SDS011;35415;47.870;16.058;2023-05-29T17:21:38;4.68;;;2.17;;
49514;SDS011;35415;47.870;16.058;2023-05-29T17:24:08;3.30;;;2.05;;
49514;SDS011;35415;47.870;16.058;2023-05-29T17:26:36;3.95;;;2.13;;
49514;SDS011;35415;47.870;16.058;2023-05-29T17:29:03;3.17;;;1.98;;
49514;SDS011;35415;47.870;16.058;2023-05-29T17:31:32;3.55;;;2.20;;
49514;SDS011;35415;47.870;16.058;2023-05-29T17:33:59;6.53;;;1.90;;
49514;SDS011;35415;47.870;16.058;2023-05-29T17:36:26;3.05;;;2.00;;
49514;SDS011;35415;47.870;16.058;2023-05-29T17:38:57;5.57;;;2.10;;
49514;SDS011;35415;47.870;16.058;2023-05-29T17:41:28;2.30;;;1.80;;
49514;SDS011;35415;47.870;16.058;2023-05-29T17:43:59;3.72;;;2.10;;
49514;SDS011;35415;47.870;16.058;2023-05-29T17:46:28;4.78;;;2.35;;
49514;SDS011;35415;47.870;16.058;2023-05-29T17:48:57;6.25;;;1.83;;
49514;SDS011;35415;47.870;16.058;2023-05-29T17:51:25;5.22;;;2.40;;
49514;SDS011;35415;47.870;16.058;2023-05-29T17:53:52;3.00;;;2.17;;
49514;SDS011;35415;47.870;16.058;2023-05-29T17:56:20;3.63;;;1.83;;
49514;SDS011;35415;47.870;16.058;2023-05-29T17:58:50;2.85;;;1.98;;
49514;SDS011;35415;47.870;16.058;2023-05-29T18:01:18;7.63;;;2.08;;
49514;SDS011;35415;47.870;16.058;2023-05-29T18:03:48;4.75;;;2.90;;
49514;SDS011;35415;47.870;16.058;2023-05-29T18:06:16;3.10;;;1.85;;
49514;SDS011;35415;47.870;16.058;2023-05-29T18:08:44;3.95;;;1.80;;
49514;SDS011;35415;47.870;16.058;2023-05-29T18:11:11;3.15;;;2.40;;
49514;SDS011;35415;47.870;16.058;2023-05-29T18:13:39;2.65;;;1.80;;
49514;SDS011;35415;47.870;16.058;2023-05-29T18:16:09;3.58;;;2.88;;
49514;SDS011;35415;47.870;16.058;2023-05-29T18:18:36;3.53;;;2.25;;
49514;SDS011;35415;47.870;16.058;2023-05-29T18:21:04;5.18;;;2.20;;
49514;SDS011;35415;47.870;16.058;2023-05-29T18:23:35;2.63;;;1.93;;
49514;SDS011;35415;47.870;16.058;2023-05-29T18:26:03;4.35;;;2.20;;
49514;SDS011;35415;47.870;16.058;2023-05-29T18:28:30;4.88;;;1.98;;
49514;SDS011;35415;47.870;16.058;2023-05-29T18:31:00;4.13;;;2.10;;
49514;SDS011;35415;47.870;16.058;2023-05-29T18:33:29;2.65;;;2.03;;
49514;SDS011;35415;47.870;16.058;2023-05-29T18:35:57;4.70;;;2.03;;
49514;SDS011;35415;47.870;16.058;2023-05-29T18:38:24;3.95;;;1.98;;
49514;SDS011;35415;47.870;16.058;2023-05-29T18:40:52;3.13;;;2.10;;
49514;SDS011;35415;47.870;16.058;2023-05-29T18:43:21;2.30;;;2.00;;
49514;SDS011;35415;47.870;16.058;2023-05-29T18:45:49;5.30;;;2.42;;
49514;SDS011;35415;47.870;16.058;2023-05-29T18:48:16;4.40;;;2.30;;
49514;SDS011;35415;47.870;16.058;2023-05-29T18:50:45;5.57;;;2.78;;
49514;SDS011;35415;47.870;16.058;2023-05-29T18:53:13;6.25;;;2.40;;
49514;SDS011;35415;47.870;16.058;2023-05-29T18:55:42;4.43;;;3.28;;
49514;SDS011;35415;47.870;16.058;2023-05-29T18:58:09;4.75;;;3.40;;
49514;SDS011;35415;47.870;16.058;2023-05-29T19:00:37;4.28;;;3.67;;
49514;SDS011;35415;47.870;16.058;2023-05-29T19:03:05;6.80;;;3.45;;
49514;SDS011;35415;47.870;16.058;2023-05-29T19:05:32;8.95;;;4.90;;
49514;SDS011;35415;47.870;16.058;2023-05-29T19:08:03;7.07;;;3.00;;
49514;SDS011;35415;47.870;16.058;2023-05-29T19:10:32;6.32;;;2.75;;
49514;SDS011;35415;47.870;16.058;2023-05-29T19:12:59;4.13;;;2.80;;
49514;SDS011;35415;47.870;16.058;2023-05-29T19:15:30;4.40;;;2.90;;
49514;SDS011;35415;47.870;16.058;2023-05-29T19:17:58;5.10;;;2.65;;
49514;SDS011;35415;47.870;16.058;2023-05-29T19:20:26;4.80;;;2.40;;
49514;SDS011;35415;47.870;16.058;2023-05-29T19:22:53;3.53;;;2.17;;
49514;SDS011;35415;47.870;16.058;2023-05-29T19:25:22;5.82;;;2.65;;
49514;SDS011;35415;47.870;16.058;2023-05-29T19:27:50;3.95;;;2.67;;
49514;SDS011;35415;47.870;16.058;2023-05-29T19:30:18;4.70;;;2.95;;
49514;SDS011;35415;47.870;16.058;2023-05-29T19:32:46;3.88;;;2.65;;
49514;SDS011;35415;47.870;16.058;2023-05-29T19:35:17;3.70;;;2.15;;
49514;SDS011;35415;47.870;16.058;2023-05-29T19:37:47;3.30;;;2.08;;
49514;SDS011;35415;47.870;16.058;2023-05-29T19:40:15;4.13;;;2.50;;
49514;SDS011;35415;47.870;16.058;2023-05-29T19:42:44;11.15;;;3.80;;
49514;SDS011;35415;47.870;16.058;2023-05-29T19:45:12;6.05;;;3.13;;
49514;SDS011;35415;47.870;16.058;2023-05-29T19:47:42;4.35;;;2.80;;
49514;SDS011;35415;47.870;16.058;2023-05-29T19:50:10;4.05;;;2.67;;
49514;SDS011;35415;47.870;16.058;2023-05-29T19:52:39;4.10;;;2.50;;
49514;SDS011;35415;47.870;16.058;2023-05-29T19:55:07;3.58;;;2.20;;
49514;SDS011;35415;47.870;16.058;2023-05-29T19:57:36;3.60;;;2.10;;
49514;SDS011;35415;47.870;16.058;2023-05-29T20:00:08;3.42;;;2.40;;
49514;SDS011;35415;47.870;16.058;2023-05-29T20:02:36;3.78;;;2.45;;
49514;SDS011;35415;47.870;16.058;2023-05-29T20:05:04;5.45;;;2.35;;
49514;SDS011;35415;47.870;16.058;2023-05-29T20:07:31;3.60;;;2.55;;
49514;SDS011;35415;47.870;16.058;2023-05-29T20:09:59;6.97;;;2.50;;
49514;SDS011;35415;47.870;16.058;2023-05-29T20:12:26;3.60;;;2.15;;
49514;SDS011;35415;47.870;16.058;2023-05-29T20:14:54;5.13;;;2.63;;
49514;SDS011;35415;47.870;16.058;2023-05-29T20:17:22;4.72;;;2.65;;
49514;SDS011;35415;47.870;16.058;2023-05-29T20:19:51;10.38;;;3.22;;
49514;SDS011;35415;47.870;16.058;2023-05-29T20:22:19;7.75;;;2.88;;
49514;SDS011;35415;47.870;16.058;2023-05-29T20:24:47;4.35;;;2.80;;
49514;SDS011;35415;47.870;16.058;2023-05-29T20:27:15;3.47;;;2.40;;
49514;SDS011;35415;47.870;16.058;2023-05-29T20:29:42;5.53;;;2.80;;
49514;SDS011;35415;47.870;16.058;2023-05-29T20:32:12;4.97;;;2.60;;
49514;SDS011;35415;47.870;16.058;2023-05-29T20:34:41;6.75;;;3.67;;
49514;SDS011;35415;47.870;16.058;2023-05-29T20:39:39;4.95;;;2.70;;
49514;SDS011;35415;47.870;16.058;2023-05-29T20:42:07;6.35;;;3.00;;
49514;SDS011;35415;47.870;16.058;2023-05-29T20:44:36;4.60;;;2.58;;
49514;SDS011;35415;47.870;16.058;2023-05-29T20:47:05;5.50;;;2.30;;
49514;SDS011;35415;47.870;16.058;2023-05-29T20:49:33;4.68;;;2.70;;
49514;SDS011;35415;47.870;16.058;2023-05-29T20:52:02;6.93;;;2.50;;
49514;SDS011;35415;47.870;16.058;2023-05-29T20:54:32;4.10;;;2.63;;
49514;SDS011;35415;47.870;16.058;2023-05-29T20:57:00;4.70;;;2.28;;
49514;SDS011;35415;47.870;16.058;2023-05-29T20:59:27;4.50;;;2.55;;
49514;SDS011;35415;47.870;16.058;2023-05-29T21:01:55;4.65;;;2.90;;
49514;SDS011;35415;47.870;16.058;2023-05-29T21:04:23;7.18;;;2.47;;
49514;SDS011;35415;47.870;16.058;2023-05-29T21:06:51;7.88;;;2.42;;
49514;SDS011;35415;47.870;16.058;2023-05-29T21:09:20;6.22;;;2.80;;
49514;SDS011;35415;47.870;16.058;2023-05-29T21:11:48;3.72;;;2.40;;
49514;SDS011;35415;47.870;16.058;2023-05-29T21:14:16;4.28;;;2.60;;
49514;SDS011;35415;47.870;16.058;2023-05-29T21:16:44;5.35;;;2.78;;
49514;SDS011;35415;47.870;16.058;2023-05-29T21:19:12;3.65;;;2.00;;
49514;SDS011;35415;47.870;16.058;2023-05-29T21:21:39;4.82;;;2.58;;
49514;SDS011;35415;47.870;16.058;2023-05-29T21:24:07;3.67;;;2.13;;
49514;SDS011;35415;47.870;16.058;2023-05-29T21:26:39;5.97;;;2.28;;
49514;SDS011;35415;47.870;16.058;2023-05-29T21:29:07;5.90;;;2.47;;
49514;SDS011;35415;47.870;16.058;2023-05-29T21:31:35;4.53;;;2.50;;
49514;SDS011;35415;47.870;16.058;2023-05-29T21:34:06;3.65;;;2.42;;
49514;SDS011;35415;47.870;16.058;2023-05-29T21:36:33;4.28;;;2.20;;
49514;SDS011;35415;47.870;16.058;2023-05-29T21:39:03;4.38;;;2.72;;
49514;SDS011;35415;47.870;16.058;2023-05-29T21:41:31;9.23;;;3.05;;
49514;SDS011;35415;47.870;16.058;2023-05-29T21:44:01;3.35;;;2.22;;
49514;SDS011;35415;47.870;16.058;2023-05-29T21:46:28;3.55;;;2.58;;
49514;SDS011;35415;47.870;16.058;2023-05-29T21:48:56;6.57;;;3.25;;
49514;SDS011;35415;47.870;16.058;2023-05-29T21:51:24;7.60;;;2.60;;
49514;SDS011;35415;47.870;16.058;2023-05-29T21:53:51;4.50;;;2.60;;
49514;SDS011;35415;47.870;16.058;2023-05-29T21:56:18;4.13;;;2.47;;
49514;SDS011;35415;47.870;16.058;2023-05-29T21:58:47;6.22;;;3.00;;
49514;SDS011;35415;47.870;16.058;2023-05-29T22:01:16;7.13;;;3.10;;
49514;SDS011;35415;47.870;16.058;2023-05-29T22:03:43;3.15;;;2.40;;
49514;SDS011;35415;47.870;16.058;2023-05-29T22:06:11;4.28;;;2.38;;
49514;SDS011;35415;47.870;16.058;2023-05-29T22:08:41;7.32;;;2.78;;
49514;SDS011;35415;47.870;16.058;2023-05-29T22:11:09;5.38;;;3.15;;
49514;SDS011;35415;47.870;16.058;2023-05-29T22:13:40;7.22;;;3.33;;
49514;SDS011;35415;47.870;16.058;2023-05-29T22:16:07;3.90;;;2.40;;
49514;SDS011;35415;47.870;16.058;2023-05-29T22:18:37;4.75;;;2.40;;